createdAt,value
2022-07-26T00:01:22.141Z,28.26
2022-07-26T00:03:52.135Z,28.59
2022-07-26T00:06:20.059Z,28.52
2022-07-26T00:08:48.035Z,28.54
2022-07-26T00:11:15.978Z,28.44
2022-07-26T00:13:43.875Z,28.83
2022-07-26T00:16:13.381Z,28.41
2022-07-26T00:18:41.468Z,28.56
2022-07-26T00:21:09.531Z,28.87
2022-07-26T00:23:39.623Z,28.64
2022-07-26T00:26:07.483Z,28.62
2022-07-26T00:28:35.393Z,28.70
2022-07-26T00:31:04.541Z,28.80
2022-07-26T00:33:34.087Z,28.99
2022-07-26T00:36:02.153Z,28.95
2022-07-26T00:38:30.040Z,29.05
2022-07-26T00:40:58.403Z,28.83
2022-07-26T00:43:26.195Z,29.10
2022-07-26T00:45:54.076Z,29.32
2022-07-26T00:48:21.928Z,29.20
2022-07-26T00:50:51.459Z,29.17
2022-07-26T00:53:20.625Z,29.49
2022-07-26T00:55:49.480Z,29.40
2022-07-26T00:58:17.917Z,29.43
2022-07-26T01:00:46.420Z,29.61
2022-07-26T01:03:14.487Z,29.96
2022-07-26T01:05:43.647Z,29.64
2022-07-26T01:08:12.898Z,29.76
2022-07-26T01:10:41.004Z,29.98
2022-07-26T01:13:09.476Z,29.54
2022-07-26T01:15:37.464Z,30.09
2022-07-26T01:18:05.447Z,29.75
2022-07-26T01:20:33.305Z,30.06
2022-07-26T01:23:02.928Z,30.21
2022-07-26T01:25:32.176Z,30.00
2022-07-26T01:28:00.277Z,30.13
2022-07-26T01:30:28.399Z,30.39
2022-07-26T01:32:56.271Z,30.31
2022-07-26T01:35:24.183Z,30.56
2022-07-26T01:37:57.220Z,30.36
2022-07-26T01:40:26.584Z,30.69
2022-07-26T01:42:54.485Z,30.28
2022-07-26T01:45:22.440Z,30.82
2022-07-26T01:47:51.026Z,30.48
2022-07-26T01:50:19.294Z,30.36
2022-07-26T01:52:47.166Z,30.61
2022-07-26T01:55:15.051Z,30.92
2022-07-26T01:57:45.962Z,31.15
2022-07-26T02:00:15.029Z,30.41
2022-07-26T02:02:42.930Z,30.93
2022-07-26T02:05:11.244Z,30.72
2022-07-26T02:07:42.827Z,30.83
2022-07-26T02:10:14.514Z,30.79
2022-07-26T02:12:44.314Z,30.90
2022-07-26T02:15:13.522Z,30.95
2022-07-26T02:17:41.582Z,30.90
2022-07-26T02:20:10.757Z,30.87
2022-07-26T02:22:38.594Z,31.35
2022-07-26T02:25:07.356Z,31.17
2022-07-26T02:27:35.228Z,31.16
2022-07-26T02:30:05.028Z,31.30
2022-07-26T02:32:32.970Z,31.49
2022-07-26T02:35:00.894Z,31.09
2022-07-26T02:37:28.817Z,31.11
2022-07-26T02:39:56.682Z,31.27
2022-07-26T02:42:24.531Z,31.31
2022-07-26T02:44:54.017Z,31.64
2022-07-26T02:47:23.263Z,31.86
2022-07-26T02:49:51.197Z,31.61
2022-07-26T02:52:19.186Z,31.67
2022-07-26T02:54:47.050Z,32.02
2022-07-26T02:57:14.887Z,31.97
2022-07-26T02:59:42.819Z,31.87
2022-07-26T03:02:10.635Z,31.97
2022-07-26T03:04:39.886Z,32.05
2022-07-26T03:07:07.856Z,31.96
2022-07-26T03:09:35.666Z,31.90
2022-07-26T03:12:03.906Z,31.98
2022-07-26T03:14:31.756Z,32.54
2022-07-26T03:16:59.556Z,32.29
2022-07-26T03:19:27.497Z,32.46
2022-07-26T03:21:56.716Z,32.51
2022-07-26T03:24:24.584Z,32.36
2022-07-26T03:26:52.626Z,32.20
2022-07-26T03:29:20.611Z,32.40
2022-07-26T03:31:48.454Z,32.31
2022-07-26T03:34:16.355Z,32.48
2022-07-26T03:36:44.342Z,32.47
2022-07-26T03:39:13.649Z,32.46
2022-07-26T03:41:41.730Z,32.39
2022-07-26T03:44:10.024Z,32.60
2022-07-26T03:46:38.184Z,32.65
2022-07-26T03:49:06.095Z,32.64
2022-07-26T03:51:34.271Z,32.83
2022-07-26T03:54:02.157Z,32.59
2022-07-26T03:56:31.944Z,33.19
2022-07-26T03:59:01.634Z,33.15
2022-07-26T04:01:30.246Z,32.72
2022-07-26T04:03:58.280Z,32.87
2022-07-26T04:06:26.129Z,33.25
2022-07-26T04:08:54.059Z,32.85
2022-07-26T04:11:22.121Z,33.35
2022-07-26T04:13:55.594Z,33.69
2022-07-26T04:16:23.592Z,33.37
2022-07-26T04:18:51.802Z,33.39
2022-07-26T04:21:19.752Z,33.58
2022-07-26T04:23:51.125Z,33.42
2022-07-26T04:26:19.909Z,33.71
2022-07-26T04:28:47.946Z,33.85
2022-07-26T04:31:17.541Z,33.53
2022-07-26T04:33:45.489Z,33.99
2022-07-26T04:36:13.458Z,33.97
2022-07-26T04:38:41.325Z,33.80
2022-07-26T04:41:09.209Z,34.15
2022-07-26T04:43:37.341Z,33.97
2022-07-26T04:46:05.326Z,33.89
2022-07-26T04:48:34.691Z,34.06
2022-07-26T04:51:02.865Z,34.59
2022-07-26T04:53:30.753Z,34.18
2022-07-26T04:55:58.649Z,34.29
2022-07-26T04:58:26.522Z,34.48
2022-07-26T05:01:09.500Z,34.37
2022-07-26T05:03:39.868Z,34.40
2022-07-26T05:06:08.354Z,34.72
2022-07-26T05:08:36.258Z,34.65
2022-07-26T05:11:04.697Z,34.77
2022-07-26T05:13:32.924Z,34.83
2022-07-26T05:16:01.697Z,34.61
2022-07-26T05:18:31.881Z,34.50
2022-07-26T05:21:15.562Z,34.90
2022-07-26T05:23:44.015Z,35.02
2022-07-26T05:26:12.275Z,34.87
2022-07-26T05:28:40.556Z,34.73
2022-07-26T05:31:08.962Z,35.25
2022-07-26T05:33:36.892Z,35.27
2022-07-26T05:36:05.403Z,35.20
2022-07-26T05:38:34.908Z,35.19
2022-07-26T05:41:03.053Z,35.41
2022-07-26T05:43:40.942Z,35.20
2022-07-26T05:46:10.790Z,35.47
2022-07-26T05:48:38.989Z,35.46
2022-07-26T05:51:07.156Z,35.53
2022-07-26T05:53:36.448Z,35.24
2022-07-26T05:56:04.742Z,35.65
2022-07-26T05:58:32.628Z,35.68
2022-07-26T06:01:01.011Z,35.53
2022-07-26T06:03:30.073Z,35.70
2022-07-26T06:05:59.582Z,35.80
2022-07-26T06:08:28.226Z,35.36
2022-07-26T06:10:57.844Z,35.54
2022-07-26T06:13:25.881Z,35.92
2022-07-26T06:15:53.863Z,35.89
2022-07-26T06:18:22.110Z,35.58
2022-07-26T06:20:51.448Z,35.68
2022-07-26T06:23:33.554Z,35.87
2022-07-26T06:26:04.971Z,35.85
2022-07-26T06:28:33.095Z,35.78
2022-07-26T06:31:00.987Z,35.92
2022-07-26T06:33:28.866Z,35.81
2022-07-26T06:35:56.866Z,35.95
2022-07-26T06:38:24.945Z,36.01
2022-07-26T06:40:52.805Z,35.68
2022-07-26T06:43:22.271Z,35.78
2022-07-26T06:45:50.632Z,36.24
2022-07-26T06:48:18.657Z,36.07
2022-07-26T06:50:46.640Z,36.03
2022-07-26T06:53:14.472Z,35.83
2022-07-26T06:55:42.829Z,36.25
2022-07-26T06:58:10.924Z,36.23
2022-07-26T07:00:40.260Z,36.14
2022-07-26T07:03:08.265Z,36.42
2022-07-26T07:05:36.222Z,36.32
2022-07-26T07:08:04.911Z,36.50
2022-07-26T07:10:35.220Z,36.28
2022-07-26T07:13:03.999Z,36.43
2022-07-26T07:15:31.932Z,36.56
2022-07-26T07:18:01.297Z,36.71
2022-07-26T07:20:29.485Z,36.40
2022-07-26T07:22:57.542Z,36.35
2022-07-26T07:25:30.882Z,36.75
2022-07-26T07:27:59.557Z,36.89
2022-07-26T07:30:28.282Z,36.63
2022-07-26T07:32:56.989Z,36.64
2022-07-26T07:35:31.684Z,36.71
2022-07-26T07:38:00.563Z,36.71
2022-07-26T07:40:28.435Z,36.54
2022-07-26T07:42:58.341Z,37.06
2022-07-26T07:45:26.326Z,36.77
2022-07-26T07:47:54.236Z,36.89
2022-07-26T07:50:22.189Z,36.89
2022-07-26T07:52:58.025Z,36.79
2022-07-26T07:55:46.246Z,36.89
2022-07-26T07:58:15.694Z,36.38
2022-07-26T08:00:45.635Z,36.47
2022-07-26T08:03:17.934Z,36.69
2022-07-26T08:05:49.310Z,36.71
2022-07-26T08:08:22.594Z,36.62
2022-07-26T08:10:52.924Z,37.01
2022-07-26T08:13:22.070Z,36.48
2022-07-26T08:15:50.965Z,36.88
2022-07-26T08:18:21.643Z,36.62
2022-07-26T08:20:51.272Z,36.69
2022-07-26T08:23:21.977Z,36.51
2022-07-26T08:26:00.682Z,36.60
2022-07-26T08:28:46.723Z,36.82
2022-07-26T08:31:15.229Z,36.54
2022-07-26T08:33:46.294Z,36.31
2022-07-26T08:36:16.052Z,36.39
2022-07-26T08:38:47.741Z,36.38
2022-07-26T08:41:16.579Z,36.38
2022-07-26T08:43:51.169Z,36.30
2022-07-26T08:46:25.347Z,36.28
2022-07-26T08:48:54.908Z,36.23
2022-07-26T08:51:25.039Z,36.07
2022-07-26T08:54:04.115Z,36.17
2022-07-26T08:56:33.287Z,36.05
2022-07-26T08:59:05.192Z,35.91
2022-07-26T09:01:33.438Z,35.84
2022-07-26T09:04:30.844Z,35.26
2022-07-26T09:07:03.301Z,35.48
2022-07-26T09:09:33.808Z,35.55
2022-07-26T09:12:15.729Z,35.25
2022-07-26T09:14:46.610Z,35.62
2022-07-26T09:17:16.437Z,35.68
2022-07-26T09:19:44.516Z,35.51
2022-07-26T09:22:14.676Z,35.19
2022-07-26T09:24:45.692Z,34.72
2022-07-26T09:27:16.926Z,34.29
2022-07-26T09:29:49.645Z,33.86
2022-07-26T09:32:19.928Z,33.84
2022-07-26T09:34:52.978Z,33.78
2022-07-26T09:37:34.929Z,33.02
2022-07-26T09:40:07.256Z,32.74
2022-07-26T09:42:35.405Z,33.63
2022-07-26T09:45:04.693Z,32.90
2022-07-26T09:47:40.364Z,32.68
2022-07-26T09:50:13.301Z,32.43
2022-07-26T09:52:42.240Z,32.65
2022-07-26T09:55:13.316Z,32.00
2022-07-26T09:57:41.452Z,32.18
2022-07-26T10:00:10.745Z,32.05
2022-07-26T10:02:38.896Z,32.03
2022-07-26T10:05:07.809Z,31.95
2022-07-26T10:07:36.224Z,32.01
2022-07-26T10:10:11.364Z,31.55
2022-07-26T10:12:44.174Z,31.41
2022-07-26T10:15:40.717Z,31.27
2022-07-26T10:18:10.161Z,31.28
2022-07-26T10:20:51.249Z,30.68
2022-07-26T10:23:36.694Z,30.96
2022-07-26T10:26:06.203Z,31.21
2022-07-26T10:28:37.803Z,31.12
2022-07-26T10:31:30.482Z,31.35
2022-07-26T10:34:01.390Z,31.58
2022-07-26T10:36:33.483Z,31.17
2022-07-26T10:39:05.272Z,31.70
2022-07-26T10:41:36.247Z,31.92
2022-07-26T10:44:25.402Z,31.72
2022-07-26T10:47:18.381Z,31.79
2022-07-26T10:49:57.640Z,32.00
2022-07-26T10:52:27.823Z,31.92
2022-07-26T10:55:13.457Z,31.91
2022-07-26T10:57:43.620Z,31.49
2022-07-26T11:00:20.121Z,31.04
2022-07-26T11:02:55.697Z,30.80
2022-07-26T11:05:28.849Z,31.31
2022-07-26T11:08:01.352Z,31.00
2022-07-26T11:10:32.748Z,30.91
2022-07-26T11:13:19.453Z,31.12
2022-07-26T11:15:51.332Z,30.95
2022-07-26T11:18:25.113Z,30.92
2022-07-26T11:20:55.375Z,30.83
2022-07-26T11:23:32.398Z,30.68
2022-07-26T11:26:12.225Z,30.83
2022-07-26T11:28:55.609Z,30.98
2022-07-26T11:31:50.769Z,30.95
2022-07-26T11:34:22.089Z,30.91
2022-07-26T11:36:52.123Z,31.11
2022-07-26T11:39:23.933Z,31.28
2022-07-26T11:41:57.405Z,31.12
2022-07-26T11:44:26.348Z,31.14
2022-07-26T11:46:57.830Z,31.22
2022-07-26T11:50:00.500Z,31.22
2022-07-26T11:52:25.053Z,31.61
2022-07-26T11:54:54.141Z,31.50
2022-07-26T11:57:22.272Z,31.98
2022-07-26T11:59:51.539Z,31.91
2022-07-26T12:02:23.265Z,31.58
2022-07-26T12:05:11.439Z,31.78
2022-07-26T12:07:39.744Z,31.45
2022-07-26T12:10:08.661Z,31.09
2022-07-26T12:12:36.902Z,31.29
2022-07-26T12:15:06.914Z,31.30
2022-07-26T12:17:36.624Z,30.98
2022-07-26T12:20:15.719Z,31.56
2022-07-26T12:22:54.491Z,31.15
2022-07-26T12:25:26.988Z,31.30
2022-07-26T12:27:55.538Z,31.18
2022-07-26T12:30:24.163Z,30.93
2022-07-26T12:32:55.248Z,30.25
2022-07-26T12:35:32.314Z,30.16
2022-07-26T12:38:01.026Z,29.79
2022-07-26T12:40:31.171Z,29.97
2022-07-26T12:43:02.801Z,29.79
2022-07-26T12:45:33.001Z,29.91
2022-07-26T12:48:03.755Z,29.44
2022-07-26T12:50:32.895Z,29.65
2022-07-26T12:53:03.184Z,29.60
2022-07-26T12:55:31.851Z,29.67
2022-07-26T12:58:00.755Z,29.35
2022-07-26T13:00:29.905Z,29.24
2022-07-26T13:02:58.370Z,29.35
2022-07-26T13:05:27.744Z,29.47
2022-07-26T13:07:55.958Z,29.52
2022-07-26T13:10:39.636Z,29.76
2022-07-26T13:13:07.792Z,29.55
2022-07-26T13:15:37.160Z,29.46
2022-07-26T13:18:08.102Z,29.36
2022-07-26T13:20:39.294Z,29.10
2022-07-26T13:23:11.542Z,29.33
2022-07-26T13:25:41.204Z,29.66
2022-07-26T13:28:09.898Z,29.32
2022-07-26T13:30:39.412Z,29.37
2022-07-26T13:33:08.258Z,29.36
2022-07-26T13:35:39.339Z,28.95
2022-07-26T13:38:09.576Z,28.77
2022-07-26T13:40:37.601Z,28.86
2022-07-26T13:43:06.045Z,28.92
2022-07-26T13:45:34.193Z,28.73
2022-07-26T13:48:02.305Z,28.58
2022-07-26T13:50:30.317Z,28.52
2022-07-26T13:52:59.858Z,28.68
2022-07-26T13:55:27.821Z,28.87
2022-07-26T13:57:57.864Z,28.62
2022-07-26T14:00:27.468Z,29.12
2022-07-26T14:02:56.407Z,29.26
2022-07-26T14:05:25.137Z,29.44
2022-07-26T14:07:53.866Z,29.21
2022-07-26T14:10:24.033Z,29.53
2022-07-26T14:12:53.463Z,29.78
2022-07-26T14:15:23.389Z,29.44
2022-07-26T14:17:52.446Z,29.63
2022-07-26T14:20:21.010Z,29.56
2022-07-26T14:22:53.209Z,29.68
2022-07-26T14:25:21.354Z,30.26
2022-07-26T14:27:51.124Z,29.95
2022-07-26T14:30:19.716Z,29.85
2022-07-26T14:32:48.168Z,30.07
2022-07-26T14:35:17.556Z,30.17
2022-07-26T14:37:46.263Z,30.39
2022-07-26T14:40:16.641Z,30.47
2022-07-26T14:42:45.250Z,30.85
2022-07-26T14:45:15.538Z,30.94
2022-07-26T14:47:44.238Z,30.62
2022-07-26T14:50:13.537Z,31.20
2022-07-26T14:52:42.990Z,30.97
2022-07-26T14:55:11.787Z,30.92
2022-07-26T14:57:40.670Z,30.77
2022-07-26T15:00:11.348Z,30.84
2022-07-26T15:02:42.319Z,30.73
2022-07-26T15:05:11.219Z,30.69
2022-07-26T15:07:39.741Z,30.58
2022-07-26T15:10:09.696Z,30.32
2022-07-26T15:12:37.793Z,30.61
2022-07-26T15:15:07.431Z,30.51
2022-07-26T15:17:36.182Z,30.32
2022-07-26T15:20:06.920Z,30.04
2022-07-26T15:22:35.560Z,30.12
2022-07-26T15:25:03.520Z,30.03
2022-07-26T15:27:31.463Z,29.95
2022-07-26T15:30:04.147Z,30.01
2022-07-26T15:32:35.310Z,30.26
2022-07-26T15:35:03.376Z,30.12
2022-07-26T15:37:32.927Z,30.03
2022-07-26T15:40:01.464Z,30.26
2022-07-26T15:42:32.047Z,30.13
2022-07-26T15:47:54.813Z,30.09
2022-07-26T15:50:26.310Z,30.39
2022-07-26T15:52:55.834Z,30.24
2022-07-26T15:55:23.862Z,29.69
2022-07-26T15:57:51.924Z,29.80
2022-07-26T16:00:20.352Z,29.78
2022-07-26T16:02:48.360Z,29.79
2022-07-26T16:05:17.258Z,29.57
2022-07-26T16:07:46.235Z,29.59
2022-07-26T16:10:16.327Z,29.82
2022-07-26T16:12:44.429Z,29.70
2022-07-26T16:15:13.163Z,30.10
2022-07-26T16:17:41.291Z,29.87
2022-07-26T16:20:10.035Z,30.05
2022-07-26T16:22:41.030Z,30.06
2022-07-26T16:25:12.780Z,30.05
2022-07-26T16:27:43.838Z,29.99
2022-07-26T16:30:13.343Z,29.73
2022-07-26T16:32:41.559Z,29.88
2022-07-26T16:35:10.580Z,29.43
2022-07-26T16:37:38.620Z,29.72
2022-07-26T16:40:08.601Z,29.64
2022-07-26T16:42:36.705Z,29.97
2022-07-26T16:45:06.786Z,29.58
2022-07-26T16:47:34.851Z,29.74
2022-07-26T16:50:03.002Z,29.67
2022-07-26T16:52:30.933Z,29.68
2022-07-26T16:54:59.082Z,29.64
2022-07-26T16:57:27.933Z,29.41
2022-07-26T16:59:55.815Z,29.63
2022-07-26T17:02:25.304Z,29.40
2022-07-26T17:04:55.850Z,29.51
2022-07-26T17:07:25.780Z,29.57
2022-07-26T17:09:55.172Z,29.83
2022-07-26T17:12:23.357Z,29.79
2022-07-26T17:14:51.681Z,29.62
2022-07-26T17:17:19.811Z,29.65
2022-07-26T17:19:49.313Z,29.73
2022-07-26T17:22:18.014Z,29.71
2022-07-26T17:24:46.113Z,29.74
2022-07-26T17:27:14.136Z,29.33
2022-07-26T17:29:42.124Z,29.62
2022-07-26T17:32:10.739Z,29.77
2022-07-26T17:34:39.567Z,29.33
2022-07-26T17:37:10.185Z,29.42
2022-07-26T17:39:50.749Z,29.61
2022-07-26T17:42:21.657Z,29.87
2022-07-26T17:44:49.824Z,29.84
2022-07-26T17:47:28.903Z,29.96
2022-07-26T17:50:14.394Z,30.04
2022-07-26T17:52:50.347Z,30.11
2022-07-26T17:55:19.659Z,30.21
2022-07-26T17:57:49.708Z,30.73
2022-07-26T18:00:19.806Z,30.75
2022-07-26T18:02:47.805Z,30.87
2022-07-26T18:05:18.257Z,30.92
2022-07-26T18:07:46.606Z,31.06
2022-07-26T18:10:16.031Z,31.33
2022-07-26T18:12:44.037Z,31.30
2022-07-26T18:15:12.721Z,31.38
2022-07-26T18:17:40.875Z,31.44
2022-07-26T18:20:10.019Z,31.55
2022-07-26T18:22:38.482Z,31.15
2022-07-26T18:25:07.663Z,31.39
2022-07-26T18:27:37.151Z,31.57
2022-07-26T18:30:06.435Z,31.79
2022-07-26T18:32:35.217Z,31.69
2022-07-26T18:35:03.370Z,31.70
2022-07-26T18:37:31.728Z,31.64
2022-07-26T18:40:00.973Z,31.82
2022-07-26T18:42:29.038Z,31.61
2022-07-26T18:44:58.383Z,31.49
2022-07-26T18:47:26.505Z,31.62
2022-07-26T18:49:54.583Z,31.59
2022-07-26T18:52:32.218Z,31.51
2022-07-26T18:55:02.574Z,31.58
2022-07-26T18:57:30.589Z,31.76
2022-07-26T18:59:59.948Z,31.97
2022-07-26T19:02:27.935Z,31.60
2022-07-26T19:04:56.328Z,31.78
2022-07-26T19:07:24.471Z,31.84
2022-07-26T19:09:57.842Z,31.29
2022-07-26T19:12:26.946Z,31.47
2022-07-26T19:14:54.939Z,31.08
2022-07-26T19:17:24.380Z,31.12
2022-07-26T19:19:52.616Z,31.03
2022-07-26T19:22:23.068Z,31.08
2022-07-26T19:24:51.317Z,31.09
2022-07-26T19:27:19.929Z,30.87
2022-07-26T19:29:48.702Z,31.22
2022-07-26T19:32:16.846Z,31.06
2022-07-26T19:34:46.250Z,31.30
2022-07-26T19:37:19.751Z,30.91
2022-07-26T19:39:48.560Z,30.91
2022-07-26T19:42:18.362Z,31.52
2022-07-26T19:44:47.215Z,31.14
2022-07-26T19:47:15.323Z,31.27
2022-07-26T19:49:43.546Z,31.56
2022-07-26T19:52:12.912Z,31.96
2022-07-26T19:54:41.226Z,32.06
2022-07-26T19:57:09.320Z,32.27
2022-07-26T19:59:37.360Z,31.83
2022-07-26T20:02:05.808Z,31.89
2022-07-26T20:04:33.949Z,32.43
2022-07-26T20:07:01.895Z,32.38
2022-07-26T20:09:31.592Z,32.54
2022-07-26T20:12:00.736Z,32.23
2022-07-26T20:14:28.776Z,32.00
2022-07-26T20:16:58.252Z,32.38
2022-07-26T20:19:28.082Z,32.14
2022-07-26T20:21:56.304Z,32.03
2022-07-26T20:24:24.372Z,31.98
2022-07-26T20:26:54.159Z,32.08
2022-07-26T20:29:22.412Z,32.11
2022-07-26T20:31:50.723Z,31.91
2022-07-26T20:34:18.941Z,32.17
2022-07-26T20:36:47.389Z,31.92
2022-07-26T20:39:15.881Z,31.65
2022-07-26T20:41:43.958Z,31.70
2022-07-26T20:44:14.783Z,31.53
2022-07-26T20:46:42.760Z,31.54
2022-07-26T20:49:11.344Z,31.66
2022-07-26T20:51:39.823Z,31.27
2022-07-26T20:54:08.675Z,31.61
2022-07-26T20:56:37.193Z,31.59
2022-07-26T20:59:05.733Z,31.42
2022-07-26T21:01:35.432Z,31.30
2022-07-26T21:04:03.599Z,31.14
2022-07-26T21:06:33.190Z,30.70
2022-07-26T21:09:08.861Z,30.79
2022-07-26T21:11:38.549Z,31.02
2022-07-26T21:14:06.808Z,30.55
2022-07-26T21:16:36.557Z,30.92
2022-07-26T21:19:05.923Z,30.78
2022-07-26T21:21:37.016Z,30.38
2022-07-26T21:24:06.727Z,30.65
2022-07-26T21:26:35.222Z,30.16
2022-07-26T21:29:03.382Z,29.88
2022-07-26T21:31:31.658Z,29.86
2022-07-26T21:34:01.239Z,29.88
2022-07-26T21:36:29.436Z,29.89
2022-07-26T21:38:59.173Z,29.20
2022-07-26T21:41:27.127Z,29.46
2022-07-26T21:43:55.187Z,29.51
2022-07-26T21:46:23.217Z,29.23
2022-07-26T21:48:51.387Z,29.52
2022-07-26T21:51:20.883Z,29.14
2022-07-26T21:53:48.987Z,29.38
2022-07-26T21:56:17.251Z,29.26
2022-07-26T21:58:45.353Z,29.39
2022-07-26T22:01:15.526Z,29.54
2022-07-26T22:03:44.225Z,29.32
2022-07-26T22:06:13.050Z,29.61
2022-07-26T22:08:42.506Z,29.52
2022-07-26T22:11:10.672Z,29.12
2022-07-26T22:13:38.873Z,29.33
2022-07-26T22:16:08.239Z,28.83
2022-07-26T22:18:36.257Z,29.34
2022-07-26T22:21:04.862Z,29.11
2022-07-26T22:23:33.466Z,29.09
2022-07-26T22:26:04.705Z,29.31
2022-07-26T22:28:34.405Z,29.28
2022-07-26T22:31:02.575Z,29.18
2022-07-26T22:33:30.646Z,28.87
2022-07-26T22:35:58.620Z,28.87
2022-07-26T22:38:26.617Z,28.53
2022-07-26T22:40:54.648Z,28.75
2022-07-26T22:43:24.240Z,28.46
2022-07-26T22:45:52.244Z,28.56
2022-07-26T22:48:20.311Z,28.58
2022-07-26T22:50:48.383Z,28.66
2022-07-26T22:53:16.430Z,28.75
2022-07-26T22:55:44.396Z,28.81
2022-07-26T22:58:12.464Z,28.93
2022-07-26T23:00:42.275Z,29.11
2022-07-26T23:03:20.048Z,29.23
2022-07-26T23:05:50.372Z,29.40
2022-07-26T23:11:08.299Z,29.15
2022-07-26T23:13:36.287Z,29.22
2022-07-26T23:16:06.502Z,29.77
2022-07-26T23:18:35.217Z,29.53
2022-07-26T23:21:04.204Z,29.60
2022-07-26T23:23:32.646Z,30.06
2022-07-26T23:26:01.084Z,30.06
2022-07-26T23:28:37.094Z,29.73
2022-07-26T23:31:11.901Z,30.15
2022-07-26T23:33:53.534Z,30.38
2022-07-26T23:36:26.247Z,29.96
2022-07-26T23:38:55.147Z,30.31
2022-07-26T23:41:23.480Z,30.01
2022-07-26T23:43:51.983Z,30.36
2022-07-26T23:46:21.713Z,30.24
2022-07-26T23:48:50.477Z,30.05
2022-07-26T23:51:19.500Z,30.52
2022-07-26T23:53:48.343Z,30.53
2022-07-26T23:56:16.896Z,30.75
2022-07-26T23:58:45.572Z,30.49
